메인 페이지
METAR-TAF:

METAR-TAF

공항 :

포트 후드 / 킬린, 텍사스, 미국

위도: 31-04N, 경도: 097-50W, 고도: 309m

현재 날씨관측

예보는 42분 전, 13:58시(UTC)에 발표되었습니다.
무풍
온도 7°C
습도 81%
기압 1011 hPa
시정: 16.1km
맑음

METAR: KGRK 141358Z AUTO 00000KT 10SM CLR 07/04 A2985 RMK AO2 SLP109 T00680041

시각: 08:40 (14:40 UTC)

예보

예보는 6 시간 40분 전, 08:00시(UTC)에 발표되었습니다.
예보 대상 시간: 14일 08시부터 15일 14시까지 (UTC)
여러 방향의 바람 6kt
시정 10km 이상
맑음
전환 중
14일 19시부터 14일 20시까지 (UTC)
12kt
시정 10km 이상
맑음
전환 중
14일 22시부터 14일 23시까지 (UTC)
9kt
시정 10km 이상
맑음

TAF: KGRK 140800Z 1408/1514 VRB06KT 9999 SKC QNH2977INS BECMG 1419/1420 17012KT 9999 SKC QNH2989INS BECMG 1422/1423 19009KT 9999 SKC QNH2980INS TX21/1420Z TN04/1413Z

4,000개 이상의 공항 관측 자료 및 예보 (METAR 및 TAF 보고).

지도상에서 검색 가능한 기상관측소가 노란 점과 빨간 점으로 표시되어 있습니다.

기상관측소 명을 보려면 표시 위로 마우스를 이동하세요.

날씨 관측과 예보를 보려면 클릭하세요.

지도 변경 : 확대하려면 엑스 표시가 있는 녹색 버튼, 축소하려면 빼기 표시가 있는 녹색 버튼, 다음 페이지의 지도를 보려면 녹색 화살표를 클릭하세요.


METAR-TAF: